Cochstedt Airport


Codes: EDBC/CSO
Name: Cochstedt Airport
City: Magdeburg
Country: Germany
Elevation: 594 ft.
Wikipedia:

Photos at Cochstedt Airport


   Photos courtesy of SpottingLog. You can add your own sightings and photos by signing up for a free trial today.



D-ALCC, 29-Jun-2015
© Niclas Karich

D-ALCF, 29-Jun-2015
© Niclas Karich

YL-RAG, 29-Jun-2015
© Niclas Karich


Weather at Cochstedt Airport


Time (UTC)DescriptionTempratureWindCloud coverageVisibilityPressureHumidity
21-Jun-2024 12:00Moderate Rain20°C9 mph, SW100%3268m1013hPa94%
21-Jun-2024 15:00Light Rain21°C7 mph, S96%10000m1012hPa89%
21-Jun-2024 18:00Light Rain21°C7 mph, S81%10000m1010hPa88%
21-Jun-2024 21:00Light Rain18°C7 mph, SW93%10000m1009hPa90%
22-Jun-2024 00:00Light Rain17°C9 mph, W97%10000m1009hPa94%
22-Jun-2024 03:00Light Rain15°C11 mph, W100%10000m1010hPa93%
22-Jun-2024 06:00Overcast Clouds13°C9 mph, W100%10000m1012hPa86%
22-Jun-2024 09:00Overcast Clouds17°C11 mph, W100%10000m1012hPa74%
22-Jun-2024 12:00Light Rain21°C11 mph, NW87%10000m1012hPa56%
22-Jun-2024 15:00Broken Clouds21°C13 mph, NW69%10000m1011hPa57%
22-Jun-2024 18:00Scattered Clouds18°C11 mph, NW38%10000m1012hPa72%
22-Jun-2024 21:00Clear Sky14°C9 mph, W4%10000m1014hPa88%
23-Jun-2024 00:00Few Clouds13°C7 mph, W19%10000m1015hPa94%
23-Jun-2024 03:00Scattered Clouds12°C7 mph, W37%10000m1016hPa97%
23-Jun-2024 06:00Scattered Clouds15°C11 mph, NW33%10000m1017hPa85%
23-Jun-2024 09:00Overcast Clouds18°C13 mph, NW94%10000m1018hPa69%
23-Jun-2024 12:00Broken Clouds20°C13 mph, NW64%10000m1018hPa62%
23-Jun-2024 15:00Broken Clouds20°C13 mph, NW52%10000m1018hPa61%
23-Jun-2024 18:00Scattered Clouds18°C11 mph, NW32%10000m1018hPa76%
23-Jun-2024 21:00Few Clouds14°C7 mph, NW24%10000m1020hPa91%
24-Jun-2024 00:00Broken Clouds12°C2 mph, NW60%10000m1021hPa94%
24-Jun-2024 03:00Scattered Clouds11°C4 mph, W36%10000m1020hPa95%
24-Jun-2024 06:00Broken Clouds15°C4 mph, NW66%10000m1021hPa85%
24-Jun-2024 09:00Scattered Clouds19°C7 mph, NW48%10000m1020hPa70%
24-Jun-2024 12:00Scattered Clouds22°C7 mph, N48%10000m1020hPa56%
24-Jun-2024 15:00Clear Sky23°C7 mph, N5%10000m1019hPa52%
24-Jun-2024 18:00Clear Sky21°C7 mph, NE3%10000m1018hPa70%
24-Jun-2024 21:00Clear Sky15°C4 mph, NE0%10000m1019hPa80%
25-Jun-2024 00:00Clear Sky14°C0 mph, SW0%10000m1019hPa88%
25-Jun-2024 03:00Clear Sky13°C0 mph, W0%10000m1018hPa88%
25-Jun-2024 06:00Clear Sky17°C4 mph, E0%10000m1018hPa78%
25-Jun-2024 09:00Clear Sky22°C9 mph, E4%10000m1017hPa60%
25-Jun-2024 12:00Scattered Clouds23°C9 mph, E35%10000m1015hPa52%
25-Jun-2024 15:00Broken Clouds22°C11 mph, SE68%10000m1014hPa61%
25-Jun-2024 18:00Broken Clouds20°C7 mph, E84%10000m1013hPa71%
25-Jun-2024 21:00Scattered Clouds17°C7 mph, E38%10000m1013hPa82%
26-Jun-2024 00:00Scattered Clouds15°C2 mph, E32%10000m1013hPa90%
26-Jun-2024 03:00Scattered Clouds15°C4 mph, NE44%10000m1012hPa94%
26-Jun-2024 06:00Broken Clouds18°C7 mph, E73%10000m1012hPa85%
26-Jun-2024 09:00Broken Clouds23°C13 mph, E65%10000m1011hPa67%